Terminal Aerodrome Forecast
Issued by NWS

Home | Current Version | Previous Version | Text Only | Print | Product List | Glossary On
Versions: 1 2 3 4 5 6 7 8 9 10 11 12 13 14 15 16 17 18 19 20 21 22 23 24 25 26 27 28 29
000
FTUS44 KHGX 240520
TAFLBX
TAF
KLBX 240520Z 2406/2506 14011KT P6SM FEW021
     FM240800 17007KT P6SM BKN009
     FM241400 19010KT P6SM SCT015
     FM241800 16014KT P6SM SCT050
     FM250300 16004KT 6SM BR SCT040=

USA.gov is the U.S. government's official web portal to all federal, state and local government web resources and services.